Time;durP1;ratioP1;P1;durP2;ratioP2;P2;SDS_P1;SDS_P2;PMS_P1;PMS_P2;Temp;Humidity;BMP_temperature;BMP_pressure;BME280_temperature;BME280_humidity;BME280_pressure;Samples;Min_cycle;Max_cycle;Signal;HPM_P1;HPM_P2
2022/12/07 00:01:11;;;;;;;14.57;13.15;;;7.30;99.90;;;;;;5113988;28;20479;-65
2022/12/07 00:03:38;;;;;;;14.60;12.30;;;7.30;99.90;;;;;;5113634;28;20027;-65
2022/12/07 00:06:05;;;;;;;13.82;12.43;;;7.10;99.90;;;;;;5113799;28;20034;-65
2022/12/07 00:08:32;;;;;;;13.27;11.88;;;7.20;99.90;;;;;;5114682;28;20027;-65
2022/12/07 00:11:06;;;;;;;16.35;14.85;;;7.30;99.90;;;;;;5113307;28;20392;-65
2022/12/07 00:13:33;;;;;;;13.73;12.43;;;7.20;99.90;;;;;;5113424;28;20108;-65
2022/12/07 00:16:07;;;;;;;14.35;12.85;;;7.20;99.90;;;;;;5113336;28;20032;-65
2022/12/07 00:18:34;;;;;;;14.10;12.75;;;7.10;99.90;;;;;;5113715;28;20034;-64
2022/12/07 00:21:05;;;;;;;14.35;13.05;;;7.10;99.90;;;;;;5095294;28;20058;-65
2022/12/07 00:23:31;;;;;;;14.35;12.88;;;7.00;99.90;;;;;;5113486;28;20023;-65
2022/12/07 00:26:06;;;;;;;14.73;12.85;;;7.00;99.90;;;;;;5113189;28;20143;-65
2022/12/07 00:28:33;;;;;;;17.45;15.68;;;7.00;99.90;;;;;;5113419;28;20028;-65
2022/12/07 00:31:10;;;;;;;14.60;13.18;;;6.90;99.90;;;;;;5113593;28;20048;-65
2022/12/07 00:33:38;;;;;;;14.32;12.88;;;6.90;99.90;;;;;;5113176;28;20055;-65
2022/12/07 00:36:09;;;;;;;15.85;14.15;;;6.90;99.90;;;;;;5113239;28;20068;-65
2022/12/07 00:38:36;;;;;;;13.98;12.57;;;6.90;99.90;;;;;;5112811;28;20496;-65
2022/12/07 00:41:04;;;;;;;13.88;12.63;;;7.10;99.90;;;;;;5114094;28;20563;-65
2022/12/07 00:43:30;;;;;;;14.65;12.38;;;6.90;99.90;;;;;;5113056;28;20019;-65
2022/12/07 00:45:56;;;;;;;13.75;12.40;;;6.80;99.90;;;;;;5112934;28;20023;-65
2022/12/07 00:48:23;;;;;;;14.55;13.15;;;6.70;99.90;;;;;;5113443;28;20031;-65
2022/12/07 00:50:49;;;;;;;14.68;13.18;;;6.80;99.90;;;;;;5113015;28;20109;-65
2022/12/07 00:53:15;;;;;;;14.27;12.88;;;6.80;99.90;;;;;;5112626;28;20053;-65
2022/12/07 00:55:41;;;;;;;13.52;12.23;;;6.90;99.90;;;;;;5112873;28;20074;-65
2022/12/07 00:58:07;;;;;;;13.95;12.50;;;6.80;99.90;;;;;;5112757;28;20032;-64
2022/12/07 01:00:34;;;;;;;14.52;13.13;;;6.80;99.90;;;;;;5113278;28;20042;-66
2022/12/07 01:03:00;;;;;;;13.52;12.20;;;6.70;99.90;;;;;;5112772;28;20024;-65
2022/12/07 01:05:26;;;;;;;14.85;13.20;;;6.70;99.90;;;;;;5112770;28;20024;-65
2022/12/07 01:07:51;;;;;;;14.00;12.70;;;6.60;99.90;;;;;;5112533;28;20023;-65
2022/12/07 01:10:17;;;;;;;14.75;13.25;;;6.70;99.90;;;;;;5112844;28;20043;-65
2022/12/07 01:12:43;;;;;;;14.50;13.13;;;6.60;99.90;;;;;;5112359;28;20028;-67
2022/12/07 01:15:09;;;;;;;14.18;12.80;;;6.40;99.90;;;;;;5113002;28;20034;-65
2022/12/07 01:17:34;;;;;;;15.68;13.50;;;6.30;99.90;;;;;;5112140;28;20080;-64
2022/12/07 01:20:01;;;;;;;14.43;12.95;;;6.50;99.90;;;;;;5112685;28;20492;-64
2022/12/07 01:22:27;;;;;;;14.57;13.05;;;6.50;99.90;;;;;;5112086;28;20383;-64
2022/12/07 01:24:53;;;;;;;14.20;12.80;;;6.50;99.90;;;;;;5112607;28;20111;-64
2022/12/07 01:27:19;;;;;;;14.85;13.35;;;6.30;99.90;;;;;;5112683;28;20026;-64
2022/12/07 01:29:44;;;;;;;14.63;13.13;;;6.40;99.90;;;;;;5112481;28;20071;-64
2022/12/07 01:32:10;;;;;;;15.70;13.80;;;6.40;99.90;;;;;;5112069;28;20331;-64
2022/12/07 01:34:36;;;;;;;19.23;16.90;;;6.30;99.90;;;;;;5111760;28;20499;-64
2022/12/07 01:37:02;;;;;;;16.13;14.63;;;6.20;99.90;;;;;;5093377;28;20024;-64
2022/12/07 01:39:28;;;;;;;15.82;14.23;;;6.30;99.90;;;;;;5112524;28;20034;-64
2022/12/07 01:41:53;;;;;;;44.38;37.55;;;6.10;99.90;;;;;;5112166;28;20060;-65
2022/12/07 01:44:24;;;;;;;50.53;42.47;;;6.10;99.90;;;;;;5112169;28;20396;-64
2022/12/07 01:47:01;;;;;;;22.38;20.08;;;6.10;99.90;;;;;;5112486;28;20107;-64
2022/12/07 01:49:46;;;;;;;20.90;16.65;;;6.10;99.90;;;;;;5112066;28;20103;-64
2022/12/07 01:52:31;;;;;;;33.35;29.83;;;6.20;99.90;;;;;;5111658;28;20016;-64
2022/12/07 01:55:04;;;;;;;38.97;34.97;;;6.10;99.90;;;;;;5111999;28;20028;-64
2022/12/07 01:57:33;;;;;;;25.70;23.08;;;5.90;99.90;;;;;;5111910;28;20077;-64
2022/12/07 01:59:59;;;;;;;24.00;21.50;;;5.90;99.90;;;;;;5111844;28;20103;-64
2022/12/07 02:03:01;;;;;;;15.73;13.98;;;5.90;99.90;;;;;;5111891;28;20031;-64
2022/12/07 02:05:28;;;;;;;16.10;14.00;;;5.90;99.90;;;;;;5108291;28;20059;-64
2022/12/07 02:07:56;;;;;;;15.40;13.93;;;5.90;99.90;;;;;;5112082;28;20392;-64
2022/12/07 02:10:24;;;;;;;24.65;20.80;;;5.80;99.90;;;;;;5093831;28;20030;-64
2022/12/07 02:12:58;;;;;;;26.23;23.20;;;5.80;99.90;;;;;;5111535;28;20093;-64
2022/12/07 02:15:57;;;;;;;17.10;15.50;;;5.80;99.90;;;;;;5111706;28;20028;-64
2022/12/07 02:18:35;;;;;;;32.13;28.85;;;5.80;99.90;;;;;;5111981;28;20387;-64
2022/12/07 02:21:19;;;;;;;29.08;25.98;;;5.70;99.90;;;;;;5111818;28;20031;-64
2022/12/07 02:24:04;;;;;;;26.95;24.05;;;5.60;99.90;;;;;;5111842;28;20032;-64
2022/12/07 02:26:38;;;;;;;15.95;14.38;;;5.40;99.90;;;;;;5111647;28;20027;-64
2022/12/07 02:29:11;;;;;;;24.23;21.77;;;5.50;99.90;;;;;;5112292;28;20027;-64
2022/12/07 02:31:44;;;;;;;22.85;20.65;;;5.40;99.90;;;;;;5111677;28;20513;-64
2022/12/07 02:34:20;;;;;;;18.35;16.52;;;5.40;99.90;;;;;;5111239;28;20047;-63
2022/12/07 02:36:52;;;;;;;16.48;14.98;;;5.30;99.90;;;;;;5111371;28;20023;-64
2022/12/07 02:39:25;;;;;;;17.48;15.82;;;5.30;99.90;;;;;;5111143;28;20024;-64
2022/12/07 02:42:02;;;;;;;16.95;15.35;;;5.10;99.90;;;;;;5110730;28;20027;-63
2022/12/07 02:44:30;;;;;;;17.80;15.98;;;4.90;99.90;;;;;;5111651;28;20035;-64
2022/12/07 02:47:07;;;;;;;16.33;14.65;;;5.10;99.90;;;;;;5113249;28;20023;-64
2022/12/07 02:49:33;;;;;;;15.68;14.18;;;5.00;99.90;;;;;;5115320;28;20512;-64
2022/12/07 02:51:58;;;;;;;16.65;14.93;;;4.90;99.90;;;;;;5115400;28;20032;-65
2022/12/07 02:54:24;;;;;;;16.55;15.00;;;4.80;99.90;;;;;;5115045;28;20437;-65
2022/12/07 02:57:07;;;;;;;22.98;20.80;;;4.60;99.90;;;;;;5115260;28;20023;-65
2022/12/07 02:59:59;;;;;;;17.63;15.85;;;4.60;99.90;;;;;;5115001;28;20111;-65
2022/12/07 03:02:39;;;;;;;16.70;14.95;;;4.60;99.90;;;;;;5115120;28;20031;-65
2022/12/07 03:05:23;;;;;;;17.70;16.00;;;4.60;99.90;;;;;;5114958;28;20020;-65
2022/12/07 03:07:57;;;;;;;17.15;15.55;;;4.50;99.90;;;;;;5114928;28;20367;-65
2022/12/07 03:10:35;;;;;;;17.50;15.82;;;4.50;99.90;;;;;;5114620;28;20051;-65
2022/12/07 03:13:19;;;;;;;19.05;17.25;;;4.30;99.90;;;;;;5114765;28;20153;-64
2022/12/07 03:16:05;;;;;;;18.60;16.70;;;4.40;99.90;;;;;;5114939;28;20384;-64
2022/12/07 03:18:55;;;;;;;18.00;16.30;;;4.30;99.90;;;;;;5113841;28;20043;-65
2022/12/07 03:21:29;;;;;;;18.75;16.92;;;4.20;99.90;;;;;;5114604;28;20122;-65
2022/12/07 03:23:58;;;;;;;19.13;17.23;;;4.10;99.90;;;;;;5114723;28;20035;-65
2022/12/07 03:26:32;;;;;;;18.98;17.00;;;4.20;99.90;;;;;;5114622;28;20548;-65
2022/12/07 03:29:06;;;;;;;19.50;17.55;;;4.20;99.90;;;;;;5114392;28;20076;-64
2022/12/07 03:31:37;;;;;;;18.95;17.15;;;4.30;99.90;;;;;;5114197;28;20526;-65
2022/12/07 03:34:23;;;;;;;18.92;17.13;;;4.50;99.90;;;;;;5113842;28;20100;-64
2022/12/07 03:37:20;;;;;;;19.65;17.70;;;4.00;99.90;;;;;;5114650;28;20022;-64
2022/12/07 03:40:15;;;;;;;20.10;18.05;;;3.90;99.90;;;;;;5113424;28;20084;-65
2022/12/07 03:42:41;;;;;;;18.85;17.05;;;3.80;99.90;;;;;;5114172;28;20175;-64
2022/12/07 03:45:08;;;;;;;20.05;18.05;;;;;;;;;;5114468;28;20098;-64
2022/12/07 03:48:00;;;;;;;20.30;18.20;;;3.80;99.90;;;;;;5113625;28;20395;-64
2022/12/07 03:50:42;;;;;;;20.35;18.30;;;3.80;99.90;;;;;;5114063;28;20055;-65
2022/12/07 03:53:18;;;;;;;20.35;18.40;;;3.50;99.90;;;;;;5113873;28;20020;-65
2022/12/07 03:55:46;;;;;;;20.33;18.45;;;3.40;99.90;;;;;;5114687;28;20038;-65
2022/12/07 03:58:18;;;;;;;20.77;18.85;;;3.40;99.90;;;;;;5113226;28;20377;-65
2022/12/07 04:00:45;;;;;;;22.08;19.92;;;3.50;99.90;;;;;;5113780;28;20024;-65
2022/12/07 04:03:11;;;;;;;22.65;20.55;;;3.50;99.90;;;;;;5113486;28;20042;-65
2022/12/07 04:05:38;;;;;;;22.48;20.40;;;3.50;99.90;;;;;;5113845;28;20066;-65
2022/12/07 04:08:04;;;;;;;23.42;21.20;;;3.10;99.90;;;;;;5113821;28;20027;-65
2022/12/07 04:10:30;;;;;;;25.15;22.65;;;3.10;99.90;;;;;;5113836;28;20024;-65
2022/12/07 04:12:56;;;;;;;23.70;21.30;;;3.10;99.90;;;;;;5114082;28;20031;-64
2022/12/07 04:15:22;;;;;;;24.63;22.23;;;3.00;99.90;;;;;;5113719;28;20110;-65
2022/12/07 04:17:48;;;;;;;25.38;22.95;;;3.00;99.90;;;;;;5113368;28;20108;-65
2022/12/07 04:20:13;;;;;;;26.52;23.83;;;2.90;99.90;;;;;;5113315;28;20063;-65
2022/12/07 04:22:39;;;;;;;25.27;22.60;;;2.80;99.90;;;;;;5113415;28;20064;-65
2022/12/07 04:25:05;;;;;;;26.92;24.33;;;2.80;99.90;;;;;;5113971;28;20076;-65
2022/12/07 04:27:31;;;;;;;27.17;24.45;;;2.90;99.90;;;;;;5113467;28;20388;-65
2022/12/07 04:29:57;;;;;;;25.75;23.05;;;2.80;99.90;;;;;;5113360;28;20024;-65
2022/12/07 04:32:23;;;;;;;26.05;23.35;;;3.50;99.90;;;;;;5112906;28;20046;-65
2022/12/07 04:34:49;;;;;;;27.98;25.08;;;2.80;99.90;;;;;;5113726;28;20495;-64
2022/12/07 04:37:15;;;;;;;27.20;24.42;;;2.70;99.90;;;;;;5113148;28;20035;-65
2022/12/07 04:39:41;;;;;;;33.00;29.70;;;2.80;99.90;;;;;;5113260;28;20019;-65
2022/12/07 04:42:07;;;;;;;29.77;26.77;;;2.70;99.90;;;;;;5113513;28;20024;-65
2022/12/07 04:44:35;;;;;;;30.60;27.23;;;2.70;99.90;;;;;;5113327;28;20102;-64
2022/12/07 04:47:00;;;;;;;30.30;27.20;;;2.60;99.90;;;;;;5112750;28;20482;-65
2022/12/07 04:49:26;;;;;;;38.08;33.60;;;2.70;99.90;;;;;;5112971;28;20097;-65
2022/12/07 04:51:52;;;;;;;33.92;30.52;;;2.70;99.90;;;;;;5113177;28;20039;-65
2022/12/07 04:54:18;;;;;;;36.10;32.20;;;2.80;99.90;;;;;;5112899;28;20031;-65
2022/12/07 04:56:44;;;;;;;32.65;29.42;;;2.70;99.90;;;;;;5113218;28;20073;-65
2022/12/07 04:59:11;;;;;;;33.13;29.17;;;2.60;99.90;;;;;;5112288;28;20028;-64
2022/12/07 05:01:38;;;;;;;37.17;32.70;;;2.60;99.90;;;;;;5113116;28;20556;-65
2022/12/07 05:04:04;;;;;;;35.10;31.30;;;2.60;99.90;;;;;;5112736;28;20058;-65
2022/12/07 05:06:29;;;;;;;35.53;31.80;;;2.50;99.90;;;;;;5112706;28;20538;-65
2022/12/07 05:08:55;;;;;;;34.33;30.63;;;2.50;99.90;;;;;;5112997;28;20028;-65
2022/12/07 05:11:39;;;;;;;35.38;31.42;;;2.50;99.90;;;;;;5111724;28;20483;-65
2022/12/07 05:14:11;;;;;;;53.58;31.80;;;2.50;99.90;;;;;;5112327;28;20148;-64
2022/12/07 05:16:37;;;;;;;67.03;33.38;;;2.30;99.90;;;;;;5112974;28;20046;-65
2022/12/07 05:19:04;;;;;;;41.95;31.88;;;2.30;99.90;;;;;;5111865;28;20030;-67
2022/12/07 05:21:30;;;;;;;41.42;36.17;;;2.20;99.90;;;;;;5112473;28;20023;-65
2022/12/07 05:23:56;;;;;;;64.40;40.25;;;2.30;99.90;;;;;;5112785;28;20028;-65
2022/12/07 05:26:21;;;;;;;66.53;38.35;;;2.20;99.90;;;;;;5112355;28;20492;-64
2022/12/07 05:28:54;;;;;;;78.82;40.17;;;2.20;99.90;;;;;;5111972;28;20028;-64
2022/12/07 05:31:21;;;;;;;51.30;36.38;;;2.20;99.90;;;;;;5112117;28;20101;-64
2022/12/07 05:33:47;;;;;;;43.72;35.67;;;2.20;99.90;;;;;;5112463;28;20130;-64
2022/12/07 05:36:12;;;;;;;44.67;36.20;;;2.30;99.90;;;;;;5112138;28;20107;-64
2022/12/07 05:38:38;;;;;;;47.50;40.17;;;2.20;99.90;;;;;;5112030;28;20028;-64
2022/12/07 05:41:06;;;;;;;54.90;36.35;;;2.20;99.90;;;;;;5112346;28;20559;-65
2022/12/07 05:43:33;;;;;;;47.15;38.35;;;2.20;99.90;;;;;;5111869;28;20031;-65
2022/12/07 05:45:59;;;;;;;45.50;37.67;;;2.30;99.90;;;;;;5112067;28;20071;-65
2022/12/07 05:48:24;;;;;;;45.50;35.22;;;2.20;99.90;;;;;;5112131;28;20024;-64
2022/12/07 05:50:51;;;;;;;53.17;35.33;;;2.20;99.90;;;;;;5112187;28;20487;-65
2022/12/07 05:53:17;;;;;;;57.78;39.40;;;2.30;99.90;;;;;;5112008;28;20436;-65
2022/12/07 05:55:43;;;;;;;50.40;37.80;;;2.30;99.90;;;;;;5112132;28;20076;-65
2022/12/07 06:00:57;;;;;;;41.03;36.08;;;2.20;99.90;;;;;;5112236;28;20035;-65
2022/12/07 06:03:23;;;;;;;38.15;33.92;;;2.30;99.90;;;;;;5111804;28;20521;-65
2022/12/07 06:05:48;;;;;;;36.78;32.47;;;2.40;99.90;;;;;;5111901;28;20471;-64
2022/12/07 06:08:15;;;;;;;33.65;30.15;;;2.30;99.90;;;;;;5112093;28;20043;-65
2022/12/07 06:10:41;;;;;;;34.42;30.73;;;2.20;99.90;;;;;;5111866;28;20024;-64
2022/12/07 06:13:08;;;;;;;37.45;33.55;;;2.20;99.90;;;;;;5111685;28;20120;-65
2022/12/07 06:15:38;;;;;;;42.38;37.72;;;2.20;99.90;;;;;;5111561;28;20016;-64
2022/12/07 06:18:04;;;;;;;32.88;29.45;;;2.30;99.90;;;;;;5111735;28;20036;-65
2022/12/07 06:20:29;;;;;;;30.52;27.52;;;2.20;99.90;;;;;;5111387;28;20411;-65
2022/12/07 06:22:55;;;;;;;33.33;29.98;;;2.30;99.90;;;;;;5115721;28;20031;-65
2022/12/07 06:25:21;;;;;;;31.25;28.05;;;2.30;99.90;;;;;;5115724;28;20027;-65
2022/12/07 06:27:46;;;;;;;31.05;28.13;;;2.40;99.90;;;;;;5115449;28;20098;-65
2022/12/07 06:30:12;;;;;;;30.48;27.42;;;2.50;99.90;;;;;;5115599;28;20044;-64
2022/12/07 06:32:38;;;;;;;29.23;26.23;;;2.50;99.90;;;;;;5115306;28;20027;-65
2022/12/07 06:35:04;;;;;;;30.67;27.55;;;2.40;99.90;;;;;;5115870;28;20484;-65
2022/12/07 06:37:30;;;;;;;31.95;28.88;;;2.40;99.90;;;;;;5115248;28;20024;-65
2022/12/07 06:39:56;;;;;;;30.45;27.45;;;2.40;99.90;;;;;;5115691;28;20100;-65
2022/12/07 06:42:22;;;;;;;29.50;26.50;;;2.40;99.90;;;;;;5114735;28;20079;-65
2022/12/07 06:44:47;;;;;;;31.13;28.10;;;2.40;99.90;;;;;;5115674;28;20034;-64
2022/12/07 06:47:13;;;;;;;30.70;27.60;;;2.40;99.90;;;;;;5115117;28;20024;-64
2022/12/07 06:49:39;;;;;;;33.75;30.23;;;2.50;99.90;;;;;;5115052;28;20391;-65
2022/12/07 06:52:05;;;;;;;29.88;26.98;;;2.40;99.90;;;;;;5115129;28;20068;-65
2022/12/07 06:54:31;;;;;;;32.90;29.70;;;2.40;99.90;;;;;;5114991;28;20039;-64
2022/12/07 06:56:57;;;;;;;31.13;27.67;;;2.50;99.90;;;;;;5115466;28;20026;-65
2022/12/07 06:59:22;;;;;;;31.23;28.02;;;2.50;99.90;;;;;;5115105;28;20055;-65
2022/12/07 07:01:48;;;;;;;31.48;28.30;;;2.40;99.90;;;;;;5115250;28;20027;-65
2022/12/07 07:04:14;;;;;;;28.45;25.70;;;2.50;99.90;;;;;;5114972;28;20028;-64
2022/12/07 07:06:40;;;;;;;30.45;27.33;;;2.40;99.90;;;;;;5115087;28;20035;-64
2022/12/07 07:09:05;;;;;;;30.98;27.77;;;2.40;99.90;;;;;;5115075;28;20032;-64
2022/12/07 07:11:31;;;;;;;30.08;27.02;;;2.40;99.90;;;;;;5114190;28;20019;-64
2022/12/07 07:14:01;;;;;;;32.20;28.98;;;2.40;99.90;;;;;;5114980;28;20035;-64
2022/12/07 07:16:29;;;;;;;30.63;27.52;;;2.50;99.90;;;;;;5114845;28;20242;-65
2022/12/07 07:18:54;;;;;;;31.73;28.35;;;2.50;99.90;;;;;;5114309;28;20506;-65
2022/12/07 07:21:20;;;;;;;30.48;27.40;;;2.50;99.90;;;;;;5114601;28;20024;-64
2022/12/07 07:23:46;;;;;;;31.30;28.13;;;2.50;99.90;;;;;;5114616;28;20019;-65
2022/12/07 07:26:12;;;;;;;29.42;26.52;;;2.60;99.90;;;;;;5114407;28;20452;-65
2022/12/07 07:28:37;;;;;;;30.23;27.13;;;2.60;99.90;;;;;;5115061;28;20020;-64
2022/12/07 07:31:03;;;;;;;32.97;29.63;;;2.60;99.90;;;;;;5114586;28;20047;-64
2022/12/07 07:33:29;;;;;;;29.83;26.83;;;2.60;99.90;;;;;;5113375;28;20538;-64
2022/12/07 07:35:55;;;;;;;30.15;27.15;;;2.70;99.90;;;;;;5114189;28;20060;-65
2022/12/07 07:38:20;;;;;;;28.77;25.90;;;2.70;99.90;;;;;;5114356;28;20472;-65
2022/12/07 07:40:46;;;;;;;27.95;25.20;;;2.70;99.90;;;;;;5114189;28;20043;-65
2022/12/07 07:43:12;;;;;;;29.88;26.98;;;2.60;99.90;;;;;;5114721;28;20019;-65
2022/12/07 07:45:38;;;;;;;27.83;24.95;;;2.70;99.90;;;;;;5114003;28;20076;-65
2022/12/07 07:48:03;;;;;;;28.88;26.00;;;2.60;99.90;;;;;;5113984;28;20395;-65
2022/12/07 07:50:29;;;;;;;29.30;26.40;;;2.80;99.90;;;;;;5114301;28;20127;-64
2022/12/07 07:52:57;;;;;;;30.13;26.90;;;2.70;99.90;;;;;;5114788;28;20168;-65
2022/12/07 07:55:23;;;;;;;29.67;26.75;;;2.70;99.90;;;;;;5113735;28;20073;-65
2022/12/07 07:57:48;;;;;;;30.10;27.00;;;2.70;99.90;;;;;;5114018;28;20023;-65
2022/12/07 08:00:15;;;;;;;29.23;26.35;;;2.80;99.90;;;;;;5113711;28;20024;-64
2022/12/07 08:02:45;;;;;;;29.80;26.88;;;2.90;99.90;;;;;;5114141;28;20044;-65
2022/12/07 08:05:12;;;;;;;28.98;25.92;;;2.90;99.90;;;;;;5113768;28;20107;-65
2022/12/07 08:07:38;;;;;;;30.58;27.38;;;2.80;99.90;;;;;;5113567;28;20028;-65
2022/12/07 08:10:04;;;;;;;30.40;27.27;;;2.80;99.90;;;;;;5113571;28;20084;-65
2022/12/07 08:12:30;;;;;;;30.08;26.98;;;2.80;99.90;;;;;;5113428;28;20031;-64
2022/12/07 08:14:55;;;;;;;31.77;28.48;;;2.80;99.90;;;;;;5113506;28;20028;-65
2022/12/07 08:17:21;;;;;;;32.10;28.80;;;2.80;99.90;;;;;;5113433;28;20103;-65
2022/12/07 08:19:47;;;;;;;32.70;27.60;;;2.80;99.90;;;;;;5113505;28;20507;-67
2022/12/07 08:22:13;;;;;;;31.20;28.02;;;2.90;99.90;;;;;;5113117;28;20020;-67
2022/12/07 08:24:38;;;;;;;31.42;28.23;;;2.80;99.90;;;;;;5113231;28;20020;-65
2022/12/07 08:27:04;;;;;;;31.40;28.20;;;2.90;99.90;;;;;;5113715;28;20030;-65
2022/12/07 08:29:30;;;;;;;31.17;27.92;;;3.00;99.90;;;;;;5112950;28;20037;-65
2022/12/07 08:31:56;;;;;;;34.33;29.15;;;3.00;99.90;;;;;;5112759;28;20051;-64
2022/12/07 08:34:21;;;;;;;30.95;27.75;;;3.10;99.90;;;;;;5113806;28;20395;-64
2022/12/07 08:36:47;;;;;;;30.90;27.80;;;3.00;99.90;;;;;;5112672;28;20080;-65
2022/12/07 08:39:13;;;;;;;31.52;28.23;;;3.00;99.90;;;;;;5113046;28;20055;-65
2022/12/07 08:41:39;;;;;;;31.90;28.67;;;3.00;99.90;;;;;;5113137;28;20402;-65
2022/12/07 08:44:05;;;;;;;32.85;29.45;;;3.00;99.90;;;;;;5112962;28;20559;-67
2022/12/07 08:47:01;;;;;;;31.98;28.67;;;3.10;99.90;;;;;;5113039;28;20023;-65
2022/12/07 08:49:44;;;;;;;31.13;27.85;;;3.10;99.90;;;;;;5112765;28;20019;-64
2022/12/07 08:52:11;;;;;;;29.67;26.75;;;2.90;99.90;;;;;;5112559;28;20020;-64
2022/12/07 08:54:39;;;;;;;31.38;28.08;;;3.00;99.90;;;;;;5112593;28;20039;-64
2022/12/07 08:57:06;;;;;;;31.25;27.95;;;3.00;99.90;;;;;;5112757;28;20020;-65
2022/12/07 08:59:35;;;;;;;30.73;27.65;;;3.20;99.90;;;;;;5094398;28;20089;-65
2022/12/07 09:02:00;;;;;;;29.08;26.02;;;3.30;99.90;;;;;;5113202;28;20049;-65
2022/12/07 09:04:26;;;;;;;27.30;24.42;;;3.30;99.90;;;;;;5112939;28;20114;-65
2022/12/07 09:06:53;;;;;;;27.23;24.42;;;3.20;99.90;;;;;;5112287;28;20028;-65
2022/12/07 09:09:19;;;;;;;28.98;25.88;;;3.40;99.90;;;;;;5112486;28;20028;-65
2022/12/07 09:11:45;;;;;;;28.77;25.95;;;3.40;99.90;;;;;;5112965;28;20164;-65
2022/12/07 09:14:12;;;;;;;27.23;24.52;;;3.40;99.90;;;;;;5112298;28;20059;-65
2022/12/07 09:16:38;;;;;;;26.98;24.23;;;3.60;99.90;;;;;;5112450;28;20028;-65
2022/12/07 09:19:04;;;;;;;26.13;23.52;;;3.40;99.90;;;;;;5112857;28;20028;-64
2022/12/07 09:21:30;;;;;;;25.67;23.00;;;3.70;99.90;;;;;;5112062;28;20034;-65
2022/12/07 09:23:56;;;;;;;26.98;24.23;;;3.60;99.90;;;;;;5112483;28;20111;-65
2022/12/07 09:26:22;;;;;;;25.27;22.88;;;3.60;99.90;;;;;;5112570;28;20118;-65
2022/12/07 09:28:47;;;;;;;25.45;22.92;;;3.80;99.90;;;;;;5112624;28;20023;-65
2022/12/07 09:31:13;;;;;;;25.58;23.05;;;3.90;99.90;;;;;;5112517;28;20600;-65
2022/12/07 09:33:39;;;;;;;25.30;22.58;;;3.70;99.90;;;;;;5112431;28;20042;-65
2022/12/07 09:36:05;;;;;;;25.25;22.65;;;3.60;99.90;;;;;;5111905;28;20015;-64
2022/12/07 09:38:32;;;;;;;25.13;22.52;;;4.00;99.90;;;;;;5112139;28;20377;-64
2022/12/07 09:41:07;;;;;;;25.98;23.27;;;3.90;99.90;;;;;;5112397;28;20332;-65
2022/12/07 09:43:35;;;;;;;25.73;23.10;;;4.00;99.90;;;;;;5112823;28;20043;-65
2022/12/07 09:46:01;;;;;;;25.15;22.58;;;4.40;99.90;;;;;;5112239;28;20023;-65
2022/12/07 09:48:36;;;;;;;24.55;21.73;;;4.40;99.90;;;;;;5112322;28;20395;-64
2022/12/07 09:51:03;;;;;;;24.08;21.60;;;4.10;99.90;;;;;;5112443;28;20043;-65
2022/12/07 09:53:33;;;;;;;24.75;22.25;;;4.40;99.90;;;;;;5111908;28;20063;-65
2022/12/07 09:56:00;;;;;;;23.83;21.42;;;4.60;99.90;;;;;;5112216;28;20395;-65
2022/12/07 09:58:29;;;;;;;23.23;20.92;;;5.10;99.90;;;;;;5112409;28;20023;-64
2022/12/07 10:01:01;;;;;;;24.27;21.70;;;5.40;99.90;;;;;;5111989;28;20046;-64
2022/12/07 10:03:29;;;;;;;24.03;20.93;;;4.90;99.90;;;;;;5112027;28;20032;-65
2022/12/07 10:05:55;;;;;;;24.67;22.17;;;4.70;99.90;;;;;;5112016;28;20051;-64
2022/12/07 10:08:21;;;;;;;23.30;20.90;;;4.90;99.90;;;;;;5112822;28;20016;-65
2022/12/07 10:10:57;;;;;;;22.60;20.30;;;4.90;99.90;;;;;;5111852;28;20115;-65
2022/12/07 10:13:48;;;;;;;21.88;19.63;;;5.60;99.90;;;;;;5111920;28;20039;-65
2022/12/07 10:16:38;;;;;;;22.67;20.40;;;5.70;99.90;;;;;;5111926;28;20032;-65
2022/12/07 10:19:32;;;;;;;21.77;19.63;;;5.40;99.90;;;;;;5111167;28;20042;-64
2022/12/07 10:22:14;;;;;;;22.60;20.13;;;5.30;99.90;;;;;;5109189;28;20026;-65
2022/12/07 10:24:46;;;;;;;21.42;19.33;;;5.20;99.90;;;;;;5110819;28;20047;-71
2022/12/07 10:27:29;;;;;;;20.83;18.83;;;5.50;99.90;;;;;;5112181;28;20081;-64
2022/12/07 10:29:58;;;;;;;21.38;19.23;;;5.50;99.90;;;;;;5112138;28;20525;-65
2022/12/07 10:32:29;;;;;;;20.27;18.00;;;6.10;99.90;;;;;;5112589;28;20387;-65
2022/12/07 10:35:17;;;;;;;19.88;17.95;;;6.10;99.90;;;;;;5111021;28;20023;-64
2022/12/07 10:37:45;;;;;;;19.90;17.88;;;6.30;99.90;;;;;;5091237;28;20082;-63
2022/12/07 10:40:25;;;;;;;19.08;17.17;;;6.20;99.90;;;;;;5091283;28;20062;-66
2022/12/07 10:43:10;;;;;;;19.65;17.73;;;5.70;99.90;;;;;;5091059;28;20024;-64
2022/12/07 10:46:01;;;;;;;20.35;17.10;;;5.90;99.90;;;;;;5091553;28;20024;-64
2022/12/07 10:48:57;;;;;;;18.60;16.83;;;5.50;99.90;;;;;;5091050;28;20023;-64
2022/12/07 10:51:51;;;;;;;19.30;17.23;;;5.80;99.90;;;;;;5091273;28;20498;-63
2022/12/07 10:54:22;;;;;;;18.70;16.83;;;6.20;99.90;;;;;;5090916;28;20062;-62
2022/12/07 10:57:03;;;;;;;19.40;17.40;;;6.00;99.90;;;;;;5091093;28;20028;-62
2022/12/07 11:00:03;;;;;;;21.42;19.25;;;5.90;99.90;;;;;;5091195;28;20070;-63
2022/12/07 11:02:47;;;;;;;20.05;17.85;;;6.20;99.90;;;;;;5090712;28;20028;-61
2022/12/07 11:05:27;;;;;;;;;;;5.60;99.90;;;;;;5091376;28;20031;-61
2022/12/07 11:08:32;;;;;;;19.45;17.42;;;6.20;99.90;;;;;;5091275;28;19954;-62
2022/12/07 11:11:06;;;;;;;18.75;16.75;;;5.90;99.90;;;;;;5032027;28;20487;-62
2022/12/07 11:13:53;;;;;;;18.05;16.25;;;6.10;99.90;;;;;;5032039;28;20492;-63
2022/12/07 11:16:31;;;;;;;41.92;34.80;;;6.40;99.90;;;;;;5032152;28;20045;-63
2022/12/07 11:19:32;;;;;;;18.52;16.67;;;6.30;99.90;;;;;;5038719;28;20535;-63
2022/12/07 11:21:59;;;;;;;18.50;16.70;;;6.40;99.90;;;;;;5048312;28;20044;-63
2022/12/07 11:24:40;;;;;;;18.88;16.98;;;6.50;99.90;;;;;;5051730;28;20155;-63
2022/12/07 11:27:24;;;;;;;18.33;16.48;;;6.70;99.90;;;;;;5052079;28;20482;-63
2022/12/07 11:30:20;;;;;;;18.15;16.35;;;6.90;99.90;;;;;;5051675;28;20131;-63
2022/12/07 11:33:09;;;;;;;18.75;16.85;;;6.40;99.90;;;;;;5043213;28;20516;-63
2022/12/07 11:35:51;;;;;;;19.25;17.25;;;6.40;99.90;;;;;;5051496;28;20065;-63
2022/12/07 11:38:23;;;;;;;17.38;15.68;;;6.20;99.90;;;;;;5051305;28;20460;-63
2022/12/07 11:40:52;;;;;;;17.73;16.02;;;6.90;99.90;;;;;;5051777;28;20044;-64
2022/12/07 11:43:29;;;;;;;18.58;16.70;;;7.30;99.90;;;;;;5051377;28;20400;-64
2022/12/07 11:46:10;;;;;;;17.33;15.70;;;7.40;99.90;;;;;;5051251;28;20568;-64
2022/12/07 11:48:51;;;;;;;15.10;13.60;;;6.50;99.90;;;;;;5091510;28;20035;-63
2022/12/07 11:51:20;;;;;;;16.35;14.75;;;6.50;99.90;;;;;;5093804;28;20028;-63
2022/12/07 11:53:53;;;;;;;16.42;14.65;;;8.00;99.90;;;;;;5093510;28;20036;-60
2022/12/07 11:56:26;;;;;;;16.15;14.55;;;8.60;99.90;;;;;;5075395;28;20445;-60
2022/12/07 11:59:15;;;;;;;14.38;12.98;;;7.60;99.90;;;;;;5094039;28;20028;-61
2022/12/07 12:01:53;;;;;;;14.65;13.15;;;7.70;99.90;;;;;;5085448;28;20376;-61
2022/12/07 12:04:42;;;;;;;14.40;12.85;;;6.90;99.90;;;;;;5093715;28;20028;-62
2022/12/07 12:07:10;;;;;;;14.50;13.10;;;7.10;99.90;;;;;;5094023;28;20020;-64
2022/12/07 12:09:48;;;;;;;14.52;13.02;;;7.60;99.90;;;;;;5093260;28;20365;-63
2022/12/07 12:12:16;;;;;;;13.65;12.27;;;7.60;99.90;;;;;;5093428;28;20461;-64
2022/12/07 12:15:15;;;;;;;12.80;11.50;;;6.80;99.90;;;;;;5092798;28;20460;-63
2022/12/07 12:18:18;;;;;;;14.15;12.65;;;7.00;99.90;;;;;;5074953;28;20036;-63
2022/12/07 12:20:53;;;;;;;14.25;12.20;;;7.20;99.90;;;;;;5092844;28;20028;-63
2022/12/07 12:23:54;;;;;;;13.50;12.10;;;7.40;99.90;;;;;;5093387;28;20027;-64
2022/12/07 12:26:25;;;;;;;12.75;11.55;;;7.40;99.90;;;;;;5031025;28;20486;-63
2022/12/07 12:28:58;;;;;;;13.50;12.18;;;7.30;99.90;;;;;;5030261;28;20033;-63
2022/12/07 12:31:27;;;;;;;13.63;12.32;;;7.40;99.90;;;;;;5030552;28;20045;-63
2022/12/07 12:34:01;;;;;;;13.55;12.15;;;7.70;99.90;;;;;;5030443;28;20045;-63
2022/12/07 12:36:45;;;;;;;14.80;13.30;;;7.50;99.90;;;;;;5021551;28;20022;-63
2022/12/07 12:39:20;;;;;;;14.05;12.57;;;7.70;99.90;;;;;;5011109;28;20037;-63
2022/12/07 12:44:14;;;;;;;13.25;11.95;;;7.60;99.90;;;;;;5010606;28;20033;-63
2022/12/07 12:46:54;;;;;;;13.35;11.95;;;7.50;99.90;;;;;;5011383;28;20034;-64
2022/12/07 12:49:20;;;;;;;13.15;11.57;;;7.80;99.90;;;;;;5010579;28;20030;-64
2022/12/07 12:51:57;;;;;;;12.50;11.30;;;7.90;99.90;;;;;;5010766;28;20497;-64
2022/12/07 12:54:28;;;;;;;12.90;11.55;;;7.90;99.90;;;;;;5011276;28;20132;-63
2022/12/07 12:57:12;;;;;;;12.95;11.43;;;8.20;99.90;;;;;;5010802;28;20097;-63
2022/12/07 12:59:53;;;;;;;11.83;10.60;;;8.50;99.90;;;;;;5028116;28;20047;-64
2022/12/07 13:02:33;;;;;;;12.20;10.90;;;7.70;99.90;;;;;;5092496;28;20790;-64
2022/12/07 13:05:09;;;;;;;12.90;10.55;;;7.60;99.90;;;;;;5074197;28;20523;-64